sensor_id;sensor_type;location;lat;lon;timestamp;P1;durP1;ratioP1;P2;durP2;ratioP2
11203;SDS011;5659;49.408;11.116;2023-02-23T00:01:53;13.33;;;7.73;;
11203;SDS011;5659;49.408;11.116;2023-02-23T00:04:19;12.57;;;8.10;;
11203;SDS011;5659;49.408;11.116;2023-02-23T00:06:47;13.73;;;8.27;;
11203;SDS011;5659;49.408;11.116;2023-02-23T00:09:16;10.80;;;7.97;;
11203;SDS011;5659;49.408;11.116;2023-02-23T00:11:59;10.57;;;7.80;;
11203;SDS011;5659;49.408;11.116;2023-02-23T00:14:31;12.17;;;8.60;;
11203;SDS011;5659;49.408;11.116;2023-02-23T00:16:57;12.83;;;8.73;;
11203;SDS011;5659;49.408;11.116;2023-02-23T00:19:24;12.60;;;8.30;;
11203;SDS011;5659;49.408;11.116;2023-02-23T00:21:50;11.13;;;8.90;;
11203;SDS011;5659;49.408;11.116;2023-02-23T00:24:16;11.43;;;9.20;;
11203;SDS011;5659;49.408;11.116;2023-02-23T00:26:44;11.43;;;9.00;;
11203;SDS011;5659;49.408;11.116;2023-02-23T00:29:12;12.47;;;8.90;;
11203;SDS011;5659;49.408;11.116;2023-02-23T00:31:42;13.43;;;8.60;;
11203;SDS011;5659;49.408;11.116;2023-02-23T00:34:09;12.10;;;9.17;;
11203;SDS011;5659;49.408;11.116;2023-02-23T00:36:35;17.50;;;9.13;;
11203;SDS011;5659;49.408;11.116;2023-02-23T00:39:04;11.63;;;8.67;;
11203;SDS011;5659;49.408;11.116;2023-02-23T00:41:40;13.13;;;8.90;;
11203;SDS011;5659;49.408;11.116;2023-02-23T00:44:06;14.23;;;8.80;;
11203;SDS011;5659;49.408;11.116;2023-02-23T00:46:32;14.33;;;8.60;;
11203;SDS011;5659;49.408;11.116;2023-02-23T00:48:59;15.23;;;8.97;;
11203;SDS011;5659;49.408;11.116;2023-02-23T00:51:26;12.40;;;9.10;;
11203;SDS011;5659;49.408;11.116;2023-02-23T00:53:59;14.10;;;8.63;;
11203;SDS011;5659;49.408;11.116;2023-02-23T00:56:25;17.57;;;9.77;;
11203;SDS011;5659;49.408;11.116;2023-02-23T00:58:51;16.13;;;9.10;;
11203;SDS011;5659;49.408;11.116;2023-02-23T01:01:17;13.33;;;9.07;;
11203;SDS011;5659;49.408;11.116;2023-02-23T01:03:44;18.43;;;10.40;;
11203;SDS011;5659;49.408;11.116;2023-02-23T01:06:11;15.43;;;9.93;;
11203;SDS011;5659;49.408;11.116;2023-02-23T01:08:38;13.63;;;9.80;;
11203;SDS011;5659;49.408;11.116;2023-02-23T01:11:05;16.87;;;9.80;;
11203;SDS011;5659;49.408;11.116;2023-02-23T01:13:33;15.00;;;10.90;;
11203;SDS011;5659;49.408;11.116;2023-02-23T01:15:59;16.40;;;10.20;;
11203;SDS011;5659;49.408;11.116;2023-02-23T01:18:25;17.53;;;10.30;;
11203;SDS011;5659;49.408;11.116;2023-02-23T01:20:51;14.73;;;10.10;;
11203;SDS011;5659;49.408;11.116;2023-02-23T01:23:18;13.50;;;9.63;;
11203;SDS011;5659;49.408;11.116;2023-02-23T01:25:44;16.03;;;10.20;;
11203;SDS011;5659;49.408;11.116;2023-02-23T01:28:10;13.40;;;9.90;;
11203;SDS011;5659;49.408;11.116;2023-02-23T01:30:37;15.87;;;10.93;;
11203;SDS011;5659;49.408;11.116;2023-02-23T01:33:03;17.00;;;9.63;;
11203;SDS011;5659;49.408;11.116;2023-02-23T01:35:30;14.53;;;10.77;;
11203;SDS011;5659;49.408;11.116;2023-02-23T01:37:57;15.93;;;10.10;;
11203;SDS011;5659;49.408;11.116;2023-02-23T01:40:23;14.37;;;10.57;;
11203;SDS011;5659;49.408;11.116;2023-02-23T01:42:57;16.40;;;11.23;;
11203;SDS011;5659;49.408;11.116;2023-02-23T01:45:28;20.60;;;11.37;;
11203;SDS011;5659;49.408;11.116;2023-02-23T01:47:56;16.40;;;11.73;;
11203;SDS011;5659;49.408;11.116;2023-02-23T01:50:26;19.90;;;11.43;;
11203;SDS011;5659;49.408;11.116;2023-02-23T01:52:52;18.27;;;11.70;;
11203;SDS011;5659;49.408;11.116;2023-02-23T01:55:20;16.03;;;11.27;;
11203;SDS011;5659;49.408;11.116;2023-02-23T01:57:49;21.20;;;12.17;;
11203;SDS011;5659;49.408;11.116;2023-02-23T02:00:17;21.83;;;12.00;;
11203;SDS011;5659;49.408;11.116;2023-02-23T02:02:44;19.37;;;12.60;;
11203;SDS011;5659;49.408;11.116;2023-02-23T02:05:12;18.70;;;12.73;;
11203;SDS011;5659;49.408;11.116;2023-02-23T02:07:41;18.70;;;12.50;;
11203;SDS011;5659;49.408;11.116;2023-02-23T02:10:09;20.00;;;14.20;;
11203;SDS011;5659;49.408;11.116;2023-02-23T02:12:35;19.27;;;13.10;;
11203;SDS011;5659;49.408;11.116;2023-02-23T02:15:03;22.23;;;14.50;;
11203;SDS011;5659;49.408;11.116;2023-02-23T02:17:44;22.07;;;13.90;;
11203;SDS011;5659;49.408;11.116;2023-02-23T02:20:29;25.87;;;14.03;;
11203;SDS011;5659;49.408;11.116;2023-02-23T02:30:49;21.97;;;14.37;;
11203;SDS011;5659;49.408;11.116;2023-02-23T02:33:29;20.40;;;15.60;;
11203;SDS011;5659;49.408;11.116;2023-02-23T02:36:15;22.60;;;15.77;;
11203;SDS011;5659;49.408;11.116;2023-02-23T02:41:48;28.47;;;15.80;;
11203;SDS011;5659;49.408;11.116;2023-02-23T02:44:27;23.43;;;15.47;;
11203;SDS011;5659;49.408;11.116;2023-02-23T02:46:57;21.57;;;14.73;;
11203;SDS011;5659;49.408;11.116;2023-02-23T02:49:25;24.37;;;15.80;;
11203;SDS011;5659;49.408;11.116;2023-02-23T02:51:55;26.83;;;15.00;;
11203;SDS011;5659;49.408;11.116;2023-02-23T02:54:36;22.10;;;14.60;;
11203;SDS011;5659;49.408;11.116;2023-02-23T02:57:03;21.90;;;15.83;;
11203;SDS011;5659;49.408;11.116;2023-02-23T02:59:30;22.87;;;16.27;;
11203;SDS011;5659;49.408;11.116;2023-02-23T03:02:17;24.43;;;17.20;;
11203;SDS011;5659;49.408;11.116;2023-02-23T03:05:11;23.00;;;16.40;;
11203;SDS011;5659;49.408;11.116;2023-02-23T03:08:00;26.83;;;17.27;;
11203;SDS011;5659;49.408;11.116;2023-02-23T03:17:18;27.77;;;18.00;;
11203;SDS011;5659;49.408;11.116;2023-02-23T03:19:57;25.37;;;19.13;;
11203;SDS011;5659;49.408;11.116;2023-02-23T03:25:43;33.70;;;18.57;;
11203;SDS011;5659;49.408;11.116;2023-02-23T03:28:29;34.87;;;20.20;;
11203;SDS011;5659;49.408;11.116;2023-02-23T03:34:11;31.33;;;19.57;;
11203;SDS011;5659;49.408;11.116;2023-02-23T03:37:10;28.30;;;19.17;;
11203;SDS011;5659;49.408;11.116;2023-02-23T03:40:05;30.63;;;19.27;;
11203;SDS011;5659;49.408;11.116;2023-02-23T03:42:51;26.27;;;19.00;;
11203;SDS011;5659;49.408;11.116;2023-02-23T03:45:38;28.67;;;19.47;;
11203;SDS011;5659;49.408;11.116;2023-02-23T03:48:23;28.40;;;18.73;;
11203;SDS011;5659;49.408;11.116;2023-02-23T03:51:09;30.50;;;18.97;;
11203;SDS011;5659;49.408;11.116;2023-02-23T03:53:58;27.37;;;18.93;;
11203;SDS011;5659;49.408;11.116;2023-02-23T03:56:46;31.30;;;20.10;;
11203;SDS011;5659;49.408;11.116;2023-02-23T03:59:35;29.83;;;19.37;;
11203;SDS011;5659;49.408;11.116;2023-02-23T04:02:22;34.40;;;20.13;;
11203;SDS011;5659;49.408;11.116;2023-02-23T04:05:12;32.03;;;20.53;;
11203;SDS011;5659;49.408;11.116;2023-02-23T04:07:59;37.03;;;20.63;;
11203;SDS011;5659;49.408;11.116;2023-02-23T04:10:46;37.33;;;20.80;;
11203;SDS011;5659;49.408;11.116;2023-02-23T04:13:32;35.57;;;21.13;;
11203;SDS011;5659;49.408;11.116;2023-02-23T04:16:00;33.63;;;21.23;;
11203;SDS011;5659;49.408;11.116;2023-02-23T04:18:27;39.70;;;21.80;;
11203;SDS011;5659;49.408;11.116;2023-02-23T04:20:54;39.60;;;23.27;;
11203;SDS011;5659;49.408;11.116;2023-02-23T04:23:20;35.47;;;22.20;;
11203;SDS011;5659;49.408;11.116;2023-02-23T04:25:49;40.37;;;23.83;;
11203;SDS011;5659;49.408;11.116;2023-02-23T04:28:15;44.83;;;24.07;;
11203;SDS011;5659;49.408;11.116;2023-02-23T04:30:42;37.23;;;22.57;;
11203;SDS011;5659;49.408;11.116;2023-02-23T04:33:08;38.13;;;22.87;;
11203;SDS011;5659;49.408;11.116;2023-02-23T04:35:34;37.07;;;22.77;;
11203;SDS011;5659;49.408;11.116;2023-02-23T04:38:00;40.03;;;22.00;;
11203;SDS011;5659;49.408;11.116;2023-02-23T04:40:26;39.93;;;23.10;;
11203;SDS011;5659;49.408;11.116;2023-02-23T04:42:53;32.60;;;21.50;;
11203;SDS011;5659;49.408;11.116;2023-02-23T04:45:19;38.80;;;23.40;;
11203;SDS011;5659;49.408;11.116;2023-02-23T04:47:46;45.17;;;23.13;;
11203;SDS011;5659;49.408;11.116;2023-02-23T04:50:12;40.60;;;22.97;;
11203;SDS011;5659;49.408;11.116;2023-02-23T04:52:38;38.90;;;24.40;;
11203;SDS011;5659;49.408;11.116;2023-02-23T04:55:05;38.70;;;24.67;;
11203;SDS011;5659;49.408;11.116;2023-02-23T04:57:32;45.20;;;25.83;;
11203;SDS011;5659;49.408;11.116;2023-02-23T04:59:58;44.83;;;25.90;;
11203;SDS011;5659;49.408;11.116;2023-02-23T05:02:24;38.50;;;25.63;;
11203;SDS011;5659;49.408;11.116;2023-02-23T05:04:51;48.10;;;26.23;;
11203;SDS011;5659;49.408;11.116;2023-02-23T05:07:17;51.47;;;27.57;;
11203;SDS011;5659;49.408;11.116;2023-02-23T05:09:43;49.20;;;28.13;;
11203;SDS011;5659;49.408;11.116;2023-02-23T05:12:08;46.40;;;28.10;;
11203;SDS011;5659;49.408;11.116;2023-02-23T05:14:34;54.50;;;28.50;;
11203;SDS011;5659;49.408;11.116;2023-02-23T05:17:00;57.73;;;28.43;;
11203;SDS011;5659;49.408;11.116;2023-02-23T05:19:26;49.87;;;29.47;;
11203;SDS011;5659;49.408;11.116;2023-02-23T05:21:52;47.03;;;27.07;;
11203;SDS011;5659;49.408;11.116;2023-02-23T05:24:18;49.03;;;27.90;;
11203;SDS011;5659;49.408;11.116;2023-02-23T05:26:44;45.60;;;29.10;;
11203;SDS011;5659;49.408;11.116;2023-02-23T05:29:11;50.87;;;28.83;;
11203;SDS011;5659;49.408;11.116;2023-02-23T05:31:37;45.37;;;29.17;;
11203;SDS011;5659;49.408;11.116;2023-02-23T05:34:03;46.77;;;28.90;;
11203;SDS011;5659;49.408;11.116;2023-02-23T05:36:30;56.23;;;29.70;;
11203;SDS011;5659;49.408;11.116;2023-02-23T05:38:56;60.93;;;30.60;;
11203;SDS011;5659;49.408;11.116;2023-02-23T05:41:22;59.77;;;30.50;;
11203;SDS011;5659;49.408;11.116;2023-02-23T05:43:48;54.70;;;31.50;;
11203;SDS011;5659;49.408;11.116;2023-02-23T05:46:24;55.27;;;31.90;;
11203;SDS011;5659;49.408;11.116;2023-02-23T05:48:59;57.40;;;32.13;;
11203;SDS011;5659;49.408;11.116;2023-02-23T05:51:26;56.87;;;31.70;;
11203;SDS011;5659;49.408;11.116;2023-02-23T05:53:52;59.60;;;33.67;;
11203;SDS011;5659;49.408;11.116;2023-02-23T05:56:18;60.57;;;33.17;;
11203;SDS011;5659;49.408;11.116;2023-02-23T05:58:46;58.47;;;35.27;;
11203;SDS011;5659;49.408;11.116;2023-02-23T06:01:12;62.70;;;32.83;;
11203;SDS011;5659;49.408;11.116;2023-02-23T06:03:38;61.53;;;33.70;;
11203;SDS011;5659;49.408;11.116;2023-02-23T06:06:04;60.50;;;33.90;;
11203;SDS011;5659;49.408;11.116;2023-02-23T06:08:30;64.43;;;35.63;;
11203;SDS011;5659;49.408;11.116;2023-02-23T06:10:57;63.80;;;35.97;;
11203;SDS011;5659;49.408;11.116;2023-02-23T06:13:23;63.13;;;35.87;;
11203;SDS011;5659;49.408;11.116;2023-02-23T06:15:48;66.90;;;36.03;;
11203;SDS011;5659;49.408;11.116;2023-02-23T06:18:14;59.43;;;34.50;;
11203;SDS011;5659;49.408;11.116;2023-02-23T06:20:41;65.43;;;36.33;;
11203;SDS011;5659;49.408;11.116;2023-02-23T06:23:07;61.97;;;33.17;;
11203;SDS011;5659;49.408;11.116;2023-02-23T06:25:33;66.13;;;35.33;;
11203;SDS011;5659;49.408;11.116;2023-02-23T06:27:59;62.83;;;37.03;;
11203;SDS011;5659;49.408;11.116;2023-02-23T06:30:25;67.60;;;34.77;;
11203;SDS011;5659;49.408;11.116;2023-02-23T06:32:51;70.00;;;35.47;;
11203;SDS011;5659;49.408;11.116;2023-02-23T06:35:17;72.90;;;36.77;;
11203;SDS011;5659;49.408;11.116;2023-02-23T06:37:43;60.00;;;36.63;;
11203;SDS011;5659;49.408;11.116;2023-02-23T06:40:09;63.37;;;35.60;;
11203;SDS011;5659;49.408;11.116;2023-02-23T06:42:36;63.33;;;34.67;;
11203;SDS011;5659;49.408;11.116;2023-02-23T06:45:02;60.57;;;33.33;;
11203;SDS011;5659;49.408;11.116;2023-02-23T06:47:28;62.00;;;34.77;;
11203;SDS011;5659;49.408;11.116;2023-02-23T06:49:55;68.87;;;34.70;;
11203;SDS011;5659;49.408;11.116;2023-02-23T06:52:23;63.80;;;35.77;;
11203;SDS011;5659;49.408;11.116;2023-02-23T06:54:50;67.17;;;35.47;;
11203;SDS011;5659;49.408;11.116;2023-02-23T06:57:16;65.83;;;36.93;;
11203;SDS011;5659;49.408;11.116;2023-02-23T06:59:43;68.50;;;35.93;;
11203;SDS011;5659;49.408;11.116;2023-02-23T07:02:10;68.50;;;34.63;;
11203;SDS011;5659;49.408;11.116;2023-02-23T07:04:36;74.50;;;38.10;;
11203;SDS011;5659;49.408;11.116;2023-02-23T07:07:02;66.17;;;36.50;;
11203;SDS011;5659;49.408;11.116;2023-02-23T07:09:29;67.03;;;38.37;;
11203;SDS011;5659;49.408;11.116;2023-02-23T07:11:55;64.70;;;36.63;;
11203;SDS011;5659;49.408;11.116;2023-02-23T07:14:21;64.43;;;35.67;;
11203;SDS011;5659;49.408;11.116;2023-02-23T07:16:47;65.57;;;35.17;;
11203;SDS011;5659;49.408;11.116;2023-02-23T07:19:13;70.03;;;36.53;;
11203;SDS011;5659;49.408;11.116;2023-02-23T07:21:39;68.43;;;36.20;;
11203;SDS011;5659;49.408;11.116;2023-02-23T07:24:05;58.43;;;35.83;;
11203;SDS011;5659;49.408;11.116;2023-02-23T07:26:31;68.93;;;37.60;;
11203;SDS011;5659;49.408;11.116;2023-02-23T07:28:58;61.87;;;36.57;;
11203;SDS011;5659;49.408;11.116;2023-02-23T07:31:24;62.87;;;36.27;;
11203;SDS011;5659;49.408;11.116;2023-02-23T07:33:50;60.63;;;36.23;;
11203;SDS011;5659;49.408;11.116;2023-02-23T07:36:18;58.23;;;34.80;;
11203;SDS011;5659;49.408;11.116;2023-02-23T07:38:44;53.00;;;33.37;;
11203;SDS011;5659;49.408;11.116;2023-02-23T07:41:10;59.27;;;34.03;;
11203;SDS011;5659;49.408;11.116;2023-02-23T07:43:36;55.07;;;34.40;;
11203;SDS011;5659;49.408;11.116;2023-02-23T07:46:02;64.50;;;35.10;;
11203;SDS011;5659;49.408;11.116;2023-02-23T07:48:28;51.77;;;34.23;;
11203;SDS011;5659;49.408;11.116;2023-02-23T07:50:54;62.37;;;34.80;;
11203;SDS011;5659;49.408;11.116;2023-02-23T07:53:20;57.53;;;34.67;;
11203;SDS011;5659;49.408;11.116;2023-02-23T07:55:53;51.87;;;34.43;;
11203;SDS011;5659;49.408;11.116;2023-02-23T07:58:19;54.70;;;35.10;;
11203;SDS011;5659;49.408;11.116;2023-02-23T08:00:45;48.73;;;33.33;;
11203;SDS011;5659;49.408;11.116;2023-02-23T08:03:11;54.40;;;33.73;;
11203;SDS011;5659;49.408;11.116;2023-02-23T08:05:37;54.10;;;32.83;;
11203;SDS011;5659;49.408;11.116;2023-02-23T08:08:04;56.50;;;33.83;;
11203;SDS011;5659;49.408;11.116;2023-02-23T08:10:30;51.40;;;32.40;;
11203;SDS011;5659;49.408;11.116;2023-02-23T08:12:56;52.47;;;33.20;;
11203;SDS011;5659;49.408;11.116;2023-02-23T08:15:23;48.97;;;33.80;;
11203;SDS011;5659;49.408;11.116;2023-02-23T08:17:49;49.87;;;33.20;;
11203;SDS011;5659;49.408;11.116;2023-02-23T08:20:15;48.80;;;31.53;;
11203;SDS011;5659;49.408;11.116;2023-02-23T08:22:41;52.30;;;32.97;;
11203;SDS011;5659;49.408;11.116;2023-02-23T08:25:07;52.63;;;33.00;;
11203;SDS011;5659;49.408;11.116;2023-02-23T08:27:34;49.40;;;34.60;;
11203;SDS011;5659;49.408;11.116;2023-02-23T08:30:00;55.87;;;34.80;;
11203;SDS011;5659;49.408;11.116;2023-02-23T08:32:28;45.70;;;31.77;;
11203;SDS011;5659;49.408;11.116;2023-02-23T08:34:54;49.83;;;32.10;;
11203;SDS011;5659;49.408;11.116;2023-02-23T08:37:22;50.27;;;32.80;;
11203;SDS011;5659;49.408;11.116;2023-02-23T08:39:48;42.27;;;31.13;;
11203;SDS011;5659;49.408;11.116;2023-02-23T08:42:15;54.07;;;33.07;;
11203;SDS011;5659;49.408;11.116;2023-02-23T08:44:42;51.83;;;33.13;;
11203;SDS011;5659;49.408;11.116;2023-02-23T08:47:08;50.97;;;32.37;;
11203;SDS011;5659;49.408;11.116;2023-02-23T08:49:34;43.67;;;31.80;;
11203;SDS011;5659;49.408;11.116;2023-02-23T08:52:00;49.17;;;32.37;;
11203;SDS011;5659;49.408;11.116;2023-02-23T08:54:26;53.73;;;32.30;;
11203;SDS011;5659;49.408;11.116;2023-02-23T08:56:54;52.07;;;32.97;;
11203;SDS011;5659;49.408;11.116;2023-02-23T08:59:20;47.93;;;32.40;;
11203;SDS011;5659;49.408;11.116;2023-02-23T09:01:46;48.23;;;32.97;;
11203;SDS011;5659;49.408;11.116;2023-02-23T09:04:12;49.77;;;33.07;;
11203;SDS011;5659;49.408;11.116;2023-02-23T09:06:38;53.47;;;34.17;;
11203;SDS011;5659;49.408;11.116;2023-02-23T09:09:05;48.73;;;32.93;;
11203;SDS011;5659;49.408;11.116;2023-02-23T09:11:31;49.83;;;32.27;;
11203;SDS011;5659;49.408;11.116;2023-02-23T09:13:57;48.20;;;32.47;;
11203;SDS011;5659;49.408;11.116;2023-02-23T09:16:23;52.40;;;32.67;;
11203;SDS011;5659;49.408;11.116;2023-02-23T09:18:49;53.97;;;34.47;;
11203;SDS011;5659;49.408;11.116;2023-02-23T09:21:16;44.77;;;32.40;;
11203;SDS011;5659;49.408;11.116;2023-02-23T09:23:44;51.70;;;32.63;;
11203;SDS011;5659;49.408;11.116;2023-02-23T09:26:12;48.10;;;31.60;;
11203;SDS011;5659;49.408;11.116;2023-02-23T09:28:38;51.03;;;32.70;;
11203;SDS011;5659;49.408;11.116;2023-02-23T09:31:08;54.40;;;32.97;;
11203;SDS011;5659;49.408;11.116;2023-02-23T09:33:35;55.60;;;33.23;;
11203;SDS011;5659;49.408;11.116;2023-02-23T09:36:07;53.27;;;32.97;;
11203;SDS011;5659;49.408;11.116;2023-02-23T09:38:36;44.30;;;31.43;;
11203;SDS011;5659;49.408;11.116;2023-02-23T09:41:02;49.22;;;32.97;;
11203;SDS011;5659;49.408;11.116;2023-02-23T09:43:34;43.88;;;32.88;;
11203;SDS011;5659;49.408;11.116;2023-02-23T09:48:30;47.87;;;33.73;;
11203;SDS011;5659;49.408;11.116;2023-02-23T09:50:58;49.30;;;33.50;;
11203;SDS011;5659;49.408;11.116;2023-02-23T09:55:51;58.37;;;34.50;;
11203;SDS011;5659;49.408;11.116;2023-02-23T09:58:28;55.88;;;35.80;;
11203;SDS011;5659;49.408;11.116;2023-02-23T10:03:30;55.73;;;34.03;;
11203;SDS011;5659;49.408;11.116;2023-02-23T10:05:59;51.77;;;33.37;;
11203;SDS011;5659;49.408;11.116;2023-02-23T10:08:34;56.43;;;34.13;;
11203;SDS011;5659;49.408;11.116;2023-02-23T10:16:03;51.15;;;32.55;;
11203;SDS011;5659;49.408;11.116;2023-02-23T10:21:12;51.75;;;31.38;;
11203;SDS011;5659;49.408;11.116;2023-02-23T10:24:02;50.15;;;32.30;;
11203;SDS011;5659;49.408;11.116;2023-02-23T10:26:27;46.63;;;31.42;;
11203;SDS011;5659;49.408;11.116;2023-02-23T10:28:56;43.28;;;29.55;;
11203;SDS011;5659;49.408;11.116;2023-02-23T10:31:25;40.85;;;28.40;;
11203;SDS011;5659;49.408;11.116;2023-02-23T10:33:51;45.08;;;28.25;;
11203;SDS011;5659;49.408;11.116;2023-02-23T10:38:54;44.47;;;29.10;;
11203;SDS011;5659;49.408;11.116;2023-02-23T10:41:20;44.17;;;29.52;;
11203;SDS011;5659;49.408;11.116;2023-02-23T10:43:47;46.13;;;29.38;;
11203;SDS011;5659;49.408;11.116;2023-02-23T10:46:16;38.17;;;26.77;;
11203;SDS011;5659;49.408;11.116;2023-02-23T10:48:44;38.90;;;27.35;;
11203;SDS011;5659;49.408;11.116;2023-02-23T10:51:16;47.15;;;27.65;;
11203;SDS011;5659;49.408;11.116;2023-02-23T10:53:43;43.08;;;28.98;;
11203;SDS011;5659;49.408;11.116;2023-02-23T10:56:16;38.60;;;26.23;;
11203;SDS011;5659;49.408;11.116;2023-02-23T10:58:52;38.53;;;26.67;;
11203;SDS011;5659;49.408;11.116;2023-02-23T11:04:11;39.10;;;25.27;;
11203;SDS011;5659;49.408;11.116;2023-02-23T11:06:37;40.47;;;25.70;;
11203;SDS011;5659;49.408;11.116;2023-02-23T11:11:59;44.65;;;27.92;;
11203;SDS011;5659;49.408;11.116;2023-02-23T11:14:27;38.25;;;27.92;;
11203;SDS011;5659;49.408;11.116;2023-02-23T11:16:54;42.42;;;27.08;;
11203;SDS011;5659;49.408;11.116;2023-02-23T11:19:33;41.22;;;27.65;;
11203;SDS011;5659;49.408;11.116;2023-02-23T11:22:01;40.40;;;26.85;;
11203;SDS011;5659;49.408;11.116;2023-02-23T11:24:28;39.90;;;27.85;;
11203;SDS011;5659;49.408;11.116;2023-02-23T11:27:01;40.67;;;27.40;;
11203;SDS011;5659;49.408;11.116;2023-02-23T11:29:40;43.83;;;28.80;;
11203;SDS011;5659;49.408;11.116;2023-02-23T11:32:08;40.05;;;27.75;;
11203;SDS011;5659;49.408;11.116;2023-02-23T11:34:37;45.58;;;28.88;;
11203;SDS011;5659;49.408;11.116;2023-02-23T11:37:06;37.10;;;27.38;;
11203;SDS011;5659;49.408;11.116;2023-02-23T11:39:32;39.60;;;28.42;;
11203;SDS011;5659;49.408;11.116;2023-02-23T11:44:40;46.92;;;29.77;;
11203;SDS011;5659;49.408;11.116;2023-02-23T11:47:12;49.88;;;29.75;;
11203;SDS011;5659;49.408;11.116;2023-02-23T11:49:38;40.53;;;29.33;;
11203;SDS011;5659;49.408;11.116;2023-02-23T11:52:10;43.05;;;29.77;;
11203;SDS011;5659;49.408;11.116;2023-02-23T11:54:48;46.05;;;29.70;;
11203;SDS011;5659;49.408;11.116;2023-02-23T11:57:21;45.85;;;31.48;;
11203;SDS011;5659;49.408;11.116;2023-02-23T11:59:48;45.00;;;29.60;;
11203;SDS011;5659;49.408;11.116;2023-02-23T12:02:23;47.78;;;30.00;;
11203;SDS011;5659;49.408;11.116;2023-02-23T12:04:51;41.95;;;27.40;;
11203;SDS011;5659;49.408;11.116;2023-02-23T12:09:44;43.75;;;30.30;;
11203;SDS011;5659;49.408;11.116;2023-02-23T12:12:14;41.25;;;29.10;;
11203;SDS011;5659;49.408;11.116;2023-02-23T12:14:43;44.60;;;29.45;;
11203;SDS011;5659;49.408;11.116;2023-02-23T12:17:17;43.72;;;29.38;;
11203;SDS011;5659;49.408;11.116;2023-02-23T12:20:02;47.50;;;29.05;;
11203;SDS011;5659;49.408;11.116;2023-02-23T12:22:31;34.03;;;26.20;;
11203;SDS011;5659;49.408;11.116;2023-02-23T12:25:41;37.08;;;26.88;;
11203;SDS011;5659;49.408;11.116;2023-02-23T12:27:50;37.75;;;25.70;;
11203;SDS011;5659;49.408;11.116;2023-02-23T12:32:54;39.83;;;26.25;;
11203;SDS011;5659;49.408;11.116;2023-02-23T12:37:59;35.95;;;23.00;;
11203;SDS011;5659;49.408;11.116;2023-02-23T12:40:29;32.28;;;21.10;;
11203;SDS011;5659;49.408;11.116;2023-02-23T12:43:18;36.33;;;23.40;;
11203;SDS011;5659;49.408;11.116;2023-02-23T12:45:50;32.78;;;22.27;;
11203;SDS011;5659;49.408;11.116;2023-02-23T12:48:29;30.48;;;21.40;;
11203;SDS011;5659;49.408;11.116;2023-02-23T12:50:59;32.75;;;21.65;;
11203;SDS011;5659;49.408;11.116;2023-02-23T12:53:41;34.35;;;22.83;;
11203;SDS011;5659;49.408;11.116;2023-02-23T12:58:41;30.75;;;19.75;;
11203;SDS011;5659;49.408;11.116;2023-02-23T13:01:18;30.52;;;20.15;;
11203;SDS011;5659;49.408;11.116;2023-02-23T13:06:26;27.40;;;19.13;;
11203;SDS011;5659;49.408;11.116;2023-02-23T13:14:35;26.30;;;18.00;;
11203;SDS011;5659;49.408;11.116;2023-02-23T13:19:49;23.75;;;17.48;;
11203;SDS011;5659;49.408;11.116;2023-02-23T13:24:44;24.63;;;17.52;;
11203;SDS011;5659;49.408;11.116;2023-02-23T13:27:20;23.52;;;16.00;;
11203;SDS011;5659;49.408;11.116;2023-02-23T13:29:48;25.08;;;18.85;;
11203;SDS011;5659;49.408;11.116;2023-02-23T13:32:17;27.52;;;17.92;;
11203;SDS011;5659;49.408;11.116;2023-02-23T13:34:50;24.40;;;17.83;;
11203;SDS011;5659;49.408;11.116;2023-02-23T13:37:18;25.02;;;16.83;;
11203;SDS011;5659;49.408;11.116;2023-02-23T13:40:09;24.35;;;16.85;;
11203;SDS011;5659;49.408;11.116;2023-02-23T13:42:50;20.63;;;15.45;;
11203;SDS011;5659;49.408;11.116;2023-02-23T13:45:30;22.33;;;15.05;;
11203;SDS011;5659;49.408;11.116;2023-02-23T13:48:04;20.05;;;15.60;;
11203;SDS011;5659;49.408;11.116;2023-02-23T13:50:38;23.65;;;15.52;;
11203;SDS011;5659;49.408;11.116;2023-02-23T13:53:05;23.92;;;16.70;;
11203;SDS011;5659;49.408;11.116;2023-02-23T13:55:36;22.00;;;15.05;;
11203;SDS011;5659;49.408;11.116;2023-02-23T13:58:15;23.80;;;15.70;;
11203;SDS011;5659;49.408;11.116;2023-02-23T14:00:42;24.60;;;15.93;;
11203;SDS011;5659;49.408;11.116;2023-02-23T14:03:19;22.58;;;16.45;;
11203;SDS011;5659;49.408;11.116;2023-02-23T14:05:45;22.52;;;15.25;;
11203;SDS011;5659;49.408;11.116;2023-02-23T14:08:31;21.77;;;16.30;;
11203;SDS011;5659;49.408;11.116;2023-02-23T14:10:58;23.13;;;15.77;;
11203;SDS011;5659;49.408;11.116;2023-02-23T14:13:39;23.00;;;14.25;;
11203;SDS011;5659;49.408;11.116;2023-02-23T14:16:16;21.27;;;14.48;;
11203;SDS011;5659;49.408;11.116;2023-02-23T14:18:53;21.20;;;14.48;;
11203;SDS011;5659;49.408;11.116;2023-02-23T14:24:15;25.77;;;15.65;;
11203;SDS011;5659;49.408;11.116;2023-02-23T14:26:44;21.92;;;15.75;;
11203;SDS011;5659;49.408;11.116;2023-02-23T14:29:24;24.50;;;15.82;;
11203;SDS011;5659;49.408;11.116;2023-02-23T14:32:25;22.73;;;16.17;;
11203;SDS011;5659;49.408;11.116;2023-02-23T14:37:39;26.73;;;15.98;;
11203;SDS011;5659;49.408;11.116;2023-02-23T14:42:32;23.88;;;16.30;;
11203;SDS011;5659;49.408;11.116;2023-02-23T14:45:02;23.73;;;16.35;;
11203;SDS011;5659;49.408;11.116;2023-02-23T14:47:29;25.45;;;15.90;;
11203;SDS011;5659;49.408;11.116;2023-02-23T14:50:05;25.38;;;15.45;;
11203;SDS011;5659;49.408;11.116;2023-02-23T14:52:40;19.65;;;14.52;;
11203;SDS011;5659;49.408;11.116;2023-02-23T14:57:39;23.25;;;15.93;;
11203;SDS011;5659;49.408;11.116;2023-02-23T15:00:25;26.73;;;16.70;;
11203;SDS011;5659;49.408;11.116;2023-02-23T15:05:25;24.45;;;16.15;;
11203;SDS011;5659;49.408;11.116;2023-02-23T15:07:51;27.20;;;16.95;;
11203;SDS011;5659;49.408;11.116;2023-02-23T15:10:24;29.73;;;16.85;;
11203;SDS011;5659;49.408;11.116;2023-02-23T15:12:51;25.35;;;18.13;;
11203;SDS011;5659;49.408;11.116;2023-02-23T15:15:18;25.23;;;17.60;;
11203;SDS011;5659;49.408;11.116;2023-02-23T15:17:46;25.73;;;17.65;;
11203;SDS011;5659;49.408;11.116;2023-02-23T15:20:14;29.73;;;18.58;;
11203;SDS011;5659;49.408;11.116;2023-02-23T15:22:40;29.13;;;17.63;;
11203;SDS011;5659;49.408;11.116;2023-02-23T15:25:17;25.40;;;17.02;;
11203;SDS011;5659;49.408;11.116;2023-02-23T15:27:44;25.30;;;17.08;;
11203;SDS011;5659;49.408;11.116;2023-02-23T15:32:46;24.55;;;16.83;;
11203;SDS011;5659;49.408;11.116;2023-02-23T15:35:12;26.15;;;18.23;;
11203;SDS011;5659;49.408;11.116;2023-02-23T15:37:42;28.40;;;18.23;;
11203;SDS011;5659;49.408;11.116;2023-02-23T15:40:11;25.38;;;18.90;;
11203;SDS011;5659;49.408;11.116;2023-02-23T15:42:40;27.25;;;18.63;;
11203;SDS011;5659;49.408;11.116;2023-02-23T15:45:13;27.38;;;17.45;;
11203;SDS011;5659;49.408;11.116;2023-02-23T15:47:39;29.42;;;17.33;;
11203;SDS011;5659;49.408;11.116;2023-02-23T15:50:07;29.23;;;20.00;;
11203;SDS011;5659;49.408;11.116;2023-02-23T15:52:38;23.65;;;17.75;;
11203;SDS011;5659;49.408;11.116;2023-02-23T15:55:11;27.30;;;18.98;;
11203;SDS011;5659;49.408;11.116;2023-02-23T15:57:45;27.55;;;18.10;;
11203;SDS011;5659;49.408;11.116;2023-02-23T16:00:17;28.30;;;19.02;;
11203;SDS011;5659;49.408;11.116;2023-02-23T16:02:44;29.90;;;19.55;;
11203;SDS011;5659;49.408;11.116;2023-02-23T16:05:19;26.88;;;18.48;;
11203;SDS011;5659;49.408;11.116;2023-02-23T16:07:46;29.92;;;19.40;;
11203;SDS011;5659;49.408;11.116;2023-02-23T16:10:22;30.60;;;20.15;;